createdAt,value
2023-10-11T00:04:52.691Z,101165.94
2023-10-11T00:07:59.424Z,101161.91
2023-10-11T00:11:03.255Z,101166.94
2023-10-11T00:14:08.901Z,101166.41
2023-10-11T00:17:12.616Z,101167.81
2023-10-11T00:20:29.183Z,101165.16
2023-10-11T00:23:33.173Z,101163.44
2023-10-11T00:26:38.937Z,101159.72
2023-10-11T00:29:44.134Z,101152.25
2023-10-11T00:32:48.962Z,101146.66
2023-10-11T00:35:54.107Z,101145.09
2023-10-11T00:38:57.820Z,101159.88
2023-10-11T00:42:01.569Z,101139.63
2023-10-11T00:45:09.668Z,101148.44
2023-10-11T00:48:15.760Z,101149.69
2023-10-11T00:51:21.216Z,101140.44
2023-10-11T00:54:26.702Z,101146.72
2023-10-11T00:57:30.789Z,101137.31
2023-10-11T01:00:37.890Z,101140.66
2023-10-11T01:03:42.579Z,101140.44
2023-10-11T01:06:49.275Z,101132.56
2023-10-11T01:09:53.091Z,101139.38
2023-10-11T01:12:58.461Z,101134.44
2023-10-11T01:16:06.794Z,101139.00
2023-10-11T01:19:12.634Z,101148.81
2023-10-11T01:22:17.984Z,101135.59
2023-10-11T01:25:21.913Z,101131.31
2023-10-11T01:28:25.551Z,101134.91
2023-10-11T01:31:34.211Z,101137.06
2023-10-11T01:34:37.973Z,101131.06
2023-10-11T01:37:45.228Z,101138.56
2023-10-11T01:40:55.570Z,101134.50
2023-10-11T01:44:00.020Z,101127.38
2023-10-11T01:47:03.973Z,101125.81
2023-10-11T01:50:10.223Z,101118.13
2023-10-11T01:53:16.738Z,101124.75
2023-10-11T01:56:20.436Z,101124.56
2023-10-11T01:59:24.107Z,101137.00
2023-10-11T02:02:29.056Z,101128.31
2023-10-11T02:05:32.829Z,101126.13
2023-10-11T02:08:38.818Z,101119.97
2023-10-11T02:11:43.557Z,101120.06
2023-10-11T02:14:47.537Z,101126.97
2023-10-11T02:17:52.527Z,101118.56
2023-10-11T02:20:56.885Z,101114.09
2023-10-11T02:24:02.113Z,101112.72
2023-10-11T02:27:07.557Z,101108.47
2023-10-11T02:30:16.187Z,101110.41
2023-10-11T02:33:22.504Z,101116.00
2023-10-11T02:36:27.649Z,101113.28
2023-10-11T02:39:34.695Z,101104.50
2023-10-11T02:42:38.786Z,101108.78
2023-10-11T02:45:42.730Z,101106.03
2023-10-11T02:48:47.887Z,101110.50
2023-10-11T02:51:55.779Z,101099.06
2023-10-11T02:55:01.552Z,101098.44
2023-10-11T02:58:08.569Z,101086.22
2023-10-11T03:01:21.552Z,101092.44
2023-10-11T03:04:29.203Z,101088.22
2023-10-11T03:07:34.876Z,101083.81
2023-10-11T03:10:44.742Z,101087.22
2023-10-11T03:13:48.340Z,101084.06
2023-10-11T03:16:57.736Z,101075.38
2023-10-11T03:20:07.753Z,101070.25
2023-10-11T03:23:13.087Z,101074.53
2023-10-11T03:26:23.866Z,101066.75
2023-10-11T03:29:31.438Z,101079.94
2023-10-11T03:32:39.264Z,101074.81
2023-10-11T03:35:45.322Z,101059.91
2023-10-11T03:38:54.200Z,101062.34
2023-10-11T03:42:08.471Z,101050.53
2023-10-11T03:45:14.544Z,101043.59
2023-10-11T03:48:18.507Z,101030.72
2023-10-11T03:51:23.914Z,101039.78
2023-10-11T03:54:27.915Z,101046.69
2023-10-11T03:57:36.661Z,101037.84
2023-10-11T04:00:49.286Z,101048.56
2023-10-11T04:03:54.086Z,101039.91
2023-10-11T04:07:03.080Z,101049.25
2023-10-11T04:10:11.603Z,101044.28
2023-10-11T04:13:17.002Z,101050.50
2023-10-11T04:16:20.737Z,101044.34
2023-10-11T04:19:27.329Z,101041.72
2023-10-11T04:22:33.396Z,101037.91
2023-10-11T04:25:38.389Z,101024.53
2023-10-11T04:28:48.789Z,101012.25
2023-10-11T04:32:10.415Z,101008.22
2023-10-11T04:35:23.145Z,101009.31
2023-10-11T04:38:31.625Z,101000.69
2023-10-11T04:41:40.500Z,101014.91
2023-10-11T04:44:48.717Z,101020.44
2023-10-11T04:47:56.713Z,101024.22
2023-10-11T04:51:23.305Z,101021.50
2023-10-11T04:54:37.958Z,101022.16
2023-10-11T04:58:02.564Z,101017.53
2023-10-11T05:01:09.882Z,101031.00
2023-10-11T05:04:16.415Z,101022.38
2023-10-11T05:07:22.531Z,101022.38
2023-10-11T05:10:43.915Z,101016.66
2023-10-11T05:14:00.911Z,101002.94
2023-10-11T05:17:32.979Z,101012.81
2023-10-11T05:20:53.518Z,101005.13
2023-10-11T05:24:15.695Z,101016.00
2023-10-11T05:27:38.168Z,101014.66
2023-10-11T05:30:46.056Z,101011.50
2023-10-11T05:34:21.002Z,101003.56
2023-10-11T05:37:41.937Z,101022.53
2023-10-11T05:41:02.831Z,101033.88
2023-10-11T05:44:24.308Z,101026.25
2023-10-11T05:47:45.432Z,101049.72
2023-10-11T05:50:56.779Z,101052.53
2023-10-11T05:54:06.154Z,101031.97
2023-10-11T05:57:10.479Z,101031.88
2023-10-11T06:00:24.534Z,101019.91
2023-10-11T06:03:31.015Z,101008.81
2023-10-11T06:06:40.654Z,101014.88
2023-10-11T06:09:47.236Z,101017.50
2023-10-11T06:12:51.123Z,101020.63
2023-10-11T06:16:04.448Z,101018.81
2023-10-11T06:19:21.192Z,101020.78
2023-10-11T06:22:30.139Z,101016.16
2023-10-11T06:25:47.887Z,101035.47
2023-10-11T06:29:04.094Z,101032.59
2023-10-11T06:32:20.433Z,101034.97
2023-10-11T06:35:27.304Z,101025.66
2023-10-11T06:38:42.917Z,101023.00
2023-10-11T06:41:51.892Z,101019.19
2023-10-11T06:44:59.367Z,100997.16
2023-10-11T06:48:08.907Z,101018.50
2023-10-11T06:51:15.072Z,101024.84
2023-10-11T06:54:24.974Z,101032.88
2023-10-11T06:57:28.961Z,101031.00
2023-10-11T07:00:38.590Z,101038.63
2023-10-11T07:03:44.663Z,101021.47
2023-10-11T07:06:51.220Z,101023.09
2023-10-11T07:09:58.498Z,101033.06
2023-10-11T07:13:07.455Z,101018.41
2023-10-11T07:16:11.619Z,101030.31
2023-10-11T07:19:17.415Z,101026.47
2023-10-11T07:22:27.425Z,101027.31
2023-10-11T07:25:38.939Z,101034.41
2023-10-11T07:28:42.878Z,101036.00
2023-10-11T07:31:52.950Z,101038.41
2023-10-11T07:34:56.917Z,101039.38
2023-10-11T07:38:01.533Z,101040.56
2023-10-11T07:41:18.611Z,101034.75
2023-10-11T07:44:22.402Z,101011.44
2023-10-11T07:47:27.196Z,101014.50
2023-10-11T07:50:34.179Z,101026.97
2023-10-11T07:53:41.451Z,101040.22
2023-10-11T07:56:47.801Z,101042.50
2023-10-11T07:59:53.340Z,101039.84
2023-10-11T08:03:04.529Z,101044.56
2023-10-11T08:06:10.366Z,101047.28
2023-10-11T08:09:20.920Z,101052.56
2023-10-11T08:12:27.284Z,101046.91
2023-10-11T08:15:31.778Z,101060.66
2023-10-11T08:18:35.711Z,101048.44
2023-10-11T08:21:39.789Z,101037.97
2023-10-11T08:24:50.803Z,101031.31
2023-10-11T08:28:12.268Z,101026.88
2023-10-11T08:31:30.687Z,101026.34
2023-10-11T08:34:36.509Z,101019.00
2023-10-11T08:37:40.361Z,101017.38
2023-10-11T08:40:44.936Z,101013.59
2023-10-11T08:43:55.192Z,101004.94
2023-10-11T08:47:04.813Z,101006.81
2023-10-11T08:50:15.844Z,101013.44
2023-10-11T08:53:23.176Z,101010.88
2023-10-11T08:56:26.839Z,100994.03
2023-10-11T08:59:33.353Z,100987.72
2023-10-11T09:02:37.058Z,100998.44
2023-10-11T09:05:44.634Z,100988.25
2023-10-11T09:08:48.715Z,100988.88
2023-10-11T09:11:56.648Z,101003.94
2023-10-11T09:15:05.396Z,101004.06
2023-10-11T09:18:19.234Z,101007.19
2023-10-11T09:21:30.689Z,101008.66
2023-10-11T09:24:45.902Z,101013.41
2023-10-11T09:27:55.532Z,101004.09
2023-10-11T09:31:13.496Z,101009.56
2023-10-11T09:34:20.707Z,101009.97
2023-10-11T09:37:26.836Z,101016.31
2023-10-11T09:40:35.069Z,101016.59
2023-10-11T09:43:46.499Z,101019.16
2023-10-11T09:46:52.434Z,101019.81
2023-10-11T09:49:58.503Z,101028.19
2023-10-11T09:53:09.176Z,101040.38
2023-10-11T09:56:36.480Z,101046.41
2023-10-11T09:59:50.025Z,101045.25
2023-10-11T10:02:56.234Z,101042.41
2023-10-11T10:06:19.851Z,101050.00
2023-10-11T10:09:28.087Z,101055.31
2023-10-11T10:12:41.530Z,101058.19
2023-10-11T10:15:53.319Z,101080.91
2023-10-11T10:19:28.729Z,101092.09
2023-10-11T10:22:32.963Z,101096.47
2023-10-11T10:25:37.050Z,101102.81
2023-10-11T10:28:54.854Z,101104.88
2023-10-11T10:32:09.206Z,101097.00
2023-10-11T10:35:40.418Z,101114.16
2023-10-11T10:39:25.118Z,101130.25
2023-10-11T10:42:29.000Z,101137.28
2023-10-11T10:45:32.972Z,101129.59
2023-10-11T10:48:41.817Z,101135.94
2023-10-11T10:51:48.850Z,101139.81
2023-10-11T10:55:03.753Z,101134.72
2023-10-11T10:58:17.334Z,101127.28
2023-10-11T11:01:29.440Z,101124.75
2023-10-11T11:04:34.164Z,101123.19
2023-10-11T11:07:39.308Z,101109.34
2023-10-11T11:10:56.334Z,101100.25
2023-10-11T11:14:03.941Z,101100.06
2023-10-11T11:17:11.505Z,101105.53
2023-10-11T11:20:16.692Z,101110.88
2023-10-11T11:23:28.379Z,101118.22
2023-10-11T11:26:34.489Z,101114.84
2023-10-11T11:29:37.598Z,101103.50
2023-10-11T11:32:43.228Z,101094.84
2023-10-11T11:35:52.989Z,101105.31
2023-10-11T11:39:18.284Z,101106.28
2023-10-11T11:42:21.551Z,101094.09
2023-10-11T11:45:27.674Z,101083.94
2023-10-11T11:48:41.764Z,101077.22
2023-10-11T11:51:45.914Z,101075.81
2023-10-11T11:54:50.415Z,101074.88
2023-10-11T11:57:54.876Z,101054.59
2023-10-11T12:01:10.450Z,101067.44
2023-10-11T12:04:14.618Z,101065.00
2023-10-11T12:07:18.852Z,101053.34
2023-10-11T12:10:25.941Z,101054.28
2023-10-11T12:13:30.257Z,101060.16
2023-10-11T12:16:34.104Z,101067.47
2023-10-11T12:19:38.305Z,101044.25
2023-10-11T12:22:44.060Z,101042.47
2023-10-11T12:25:49.208Z,101021.84
2023-10-11T12:28:53.073Z,101020.81
2023-10-11T12:31:57.256Z,101016.03
2023-10-11T12:35:06.670Z,101021.91
2023-10-11T12:38:13.609Z,101027.47
2023-10-11T12:41:18.831Z,101017.13
2023-10-11T12:44:23.203Z,101019.59
2023-10-11T12:47:26.907Z,101013.56
2023-10-11T12:50:31.427Z,101016.78
2023-10-11T12:53:36.594Z,101018.94
2023-10-11T12:56:43.945Z,101027.22
2023-10-11T12:59:47.829Z,101027.00
2023-10-11T13:02:51.658Z,101034.78
2023-10-11T13:05:55.929Z,101035.00
2023-10-11T13:09:00.623Z,101040.00
2023-10-11T13:12:07.171Z,101043.50
2023-10-11T13:15:19.190Z,101047.41
2023-10-11T13:18:26.396Z,101043.41
2023-10-11T13:21:35.128Z,101041.81
2023-10-11T13:24:39.408Z,101044.94
2023-10-11T13:27:45.438Z,101024.66
2023-10-11T13:30:49.714Z,101022.19
2023-10-11T13:33:54.720Z,101019.94
2023-10-11T13:36:59.812Z,101019.38
2023-10-11T13:40:07.249Z,101017.78
2023-10-11T13:43:13.200Z,101011.44
2023-10-11T13:46:18.531Z,101003.03
2023-10-11T13:49:28.808Z,101004.34
2023-10-11T13:52:40.026Z,101000.56
2023-10-11T13:55:44.542Z,100995.72
2023-10-11T13:58:52.797Z,100996.16
2023-10-11T14:02:22.358Z,101000.00
2023-10-11T14:05:32.650Z,101000.09
2023-10-11T14:08:45.145Z,100997.66
2023-10-11T14:11:52.130Z,101001.03
2023-10-11T14:14:57.666Z,100993.88
2023-10-11T14:18:03.818Z,100991.88
2023-10-11T14:21:11.498Z,100985.28
2023-10-11T14:24:18.160Z,100972.88
2023-10-11T14:27:22.095Z,100959.34
2023-10-11T14:30:27.469Z,100964.03
2023-10-11T14:33:31.166Z,100951.31
2023-10-11T14:36:35.275Z,100952.25
2023-10-11T14:39:39.057Z,100947.94
2023-10-11T14:42:43.426Z,100961.50
2023-10-11T14:45:49.623Z,100957.06
2023-10-11T14:48:54.453Z,100947.94
2023-10-11T14:51:58.387Z,100943.00
2023-10-11T14:55:02.162Z,100945.53
2023-10-11T14:58:06.776Z,100944.34
2023-10-11T15:01:15.416Z,100935.53
2023-10-11T15:04:19.663Z,100940.97
2023-10-11T15:07:24.134Z,100946.06
2023-10-11T15:10:28.306Z,100948.47
2023-10-11T15:13:33.384Z,100942.41
2023-10-11T15:16:39.526Z,100930.81
2023-10-11T15:19:44.460Z,100923.94
2023-10-11T15:22:48.899Z,100929.88
2023-10-11T15:25:54.924Z,100934.44
2023-10-11T15:28:58.617Z,100931.84
2023-10-11T15:32:05.415Z,100931.94
2023-10-11T15:35:10.180Z,100941.84
2023-10-11T15:38:14.387Z,100938.19
2023-10-11T15:41:18.401Z,100934.44
2023-10-11T15:44:22.327Z,100937.16
2023-10-11T15:47:27.636Z,100933.88
2023-10-11T15:50:31.637Z,100931.94
2023-10-11T15:53:35.312Z,100928.47
2023-10-11T15:56:40.081Z,100933.91
2023-10-11T15:59:43.698Z,100929.56
2023-10-11T16:02:48.964Z,100922.38
2023-10-11T16:05:55.764Z,100924.06
2023-10-11T16:09:01.233Z,100934.53
2023-10-11T16:12:05.943Z,100931.03
2023-10-11T16:15:13.811Z,100932.09
2023-10-11T16:18:19.376Z,100945.66
2023-10-11T16:21:25.248Z,100936.50
2023-10-11T16:24:29.356Z,100932.84
2023-10-11T16:27:35.529Z,100936.59
2023-10-11T16:30:39.486Z,100945.84
2023-10-11T16:33:45.322Z,100936.41
2023-10-11T16:36:51.639Z,100937.47
2023-10-11T16:39:56.745Z,100941.06
2023-10-11T16:43:00.746Z,100942.28
2023-10-11T16:46:10.520Z,100936.16
2023-10-11T16:49:25.122Z,100933.75
2023-10-11T16:52:28.925Z,100951.59
2023-10-11T16:55:33.129Z,100944.16
2023-10-11T16:58:36.832Z,100949.66
2023-10-11T17:01:40.699Z,100935.66
2023-10-11T17:04:49.622Z,100919.66
2023-10-11T17:07:54.482Z,100904.47
2023-10-11T17:10:59.449Z,100896.41
2023-10-11T17:14:03.229Z,100906.69
2023-10-11T17:17:07.037Z,100916.16
2023-10-11T17:20:16.853Z,100928.75
2023-10-11T17:23:20.637Z,100936.91
2023-10-11T17:26:25.662Z,100937.75
2023-10-11T17:29:29.462Z,100934.78
2023-10-11T17:32:33.219Z,100942.22
2023-10-11T17:35:38.324Z,100939.72
2023-10-11T17:38:42.364Z,100948.63
2023-10-11T17:41:46.381Z,100945.03
2023-10-11T17:44:50.045Z,100953.94
2023-10-11T17:47:54.615Z,100956.59
2023-10-11T17:51:01.308Z,100960.75
2023-10-11T17:54:05.357Z,100954.91
2023-10-11T17:57:09.060Z,100950.63
2023-10-11T18:00:19.738Z,100944.66
2023-10-11T18:03:23.647Z,100930.44
2023-10-11T18:06:30.029Z,100924.09
2023-10-11T18:09:33.975Z,100935.94
2023-10-11T18:12:38.348Z,100936.78
2023-10-11T18:15:49.636Z,100927.22
2023-10-11T18:18:53.604Z,100935.38
2023-10-11T18:21:59.048Z,100934.22
2023-10-11T18:25:02.830Z,100931.31
2023-10-11T18:28:07.411Z,100936.59
2023-10-11T18:31:12.635Z,100926.78
2023-10-11T18:34:16.460Z,100931.19
2023-10-11T18:37:21.667Z,100921.53
2023-10-11T18:40:27.283Z,100917.00
2023-10-11T18:43:33.568Z,100923.81
2023-10-11T18:46:37.837Z,100925.91
2023-10-11T18:49:41.667Z,100922.75
2023-10-11T18:52:47.315Z,100928.38
2023-10-11T18:55:51.691Z,100933.66
2023-10-11T18:58:56.273Z,100922.13
2023-10-11T19:01:59.937Z,100907.16
2023-10-11T19:05:06.413Z,100903.75
2023-10-11T19:08:14.787Z,100909.78
2023-10-11T19:11:18.611Z,100907.22
2023-10-11T19:14:22.430Z,100920.78
2023-10-11T19:17:26.998Z,100920.19
2023-10-11T19:20:31.658Z,100923.59
2023-10-11T19:23:37.191Z,100921.81
2023-10-11T19:26:41.068Z,100928.16
2023-10-11T19:29:44.969Z,100938.06
2023-10-11T19:32:48.817Z,100942.72
2023-10-11T19:35:52.501Z,100956.91
2023-10-11T19:38:57.730Z,100968.38
2023-10-11T19:42:02.135Z,100964.13
2023-10-11T19:45:11.338Z,100962.41
2023-10-11T19:48:15.244Z,100965.63
2023-10-11T19:51:19.140Z,100960.31
2023-10-11T19:54:24.179Z,100959.56
2023-10-11T19:57:28.027Z,100957.00
2023-10-11T20:00:34.696Z,100967.72
2023-10-11T20:03:40.138Z,100966.00
2023-10-11T20:06:43.988Z,100975.75
2023-10-11T20:09:49.777Z,100972.63
2023-10-11T20:12:55.721Z,100975.44
2023-10-11T20:16:03.318Z,100986.38
2023-10-11T20:19:07.296Z,100998.91
2023-10-11T20:22:14.011Z,100992.16
2023-10-11T20:25:21.998Z,101000.84
2023-10-11T20:28:26.176Z,100984.56
2023-10-11T20:31:30.078Z,101000.44
2023-10-11T20:34:34.127Z,100983.88
2023-10-11T20:37:37.879Z,100983.09
2023-10-11T20:40:44.416Z,100997.31
2023-10-11T20:43:48.119Z,100997.31
2023-10-11T20:46:52.205Z,100995.59
2023-10-11T20:49:56.095Z,101008.06
2023-10-11T20:53:02.332Z,100992.31
2023-10-11T20:56:08.417Z,100992.38
2023-10-11T20:59:16.091Z,100997.78
2023-10-11T21:02:19.911Z,100962.09
2023-10-11T21:05:27.298Z,100962.75
2023-10-11T21:08:31.206Z,100992.06
2023-10-11T21:11:36.608Z,100975.72
2023-10-11T21:14:40.491Z,100995.34
2023-10-11T21:17:45.854Z,100998.19
2023-10-11T21:20:53.892Z,101010.91
2023-10-11T21:23:58.982Z,101010.06
2023-10-11T21:27:04.126Z,100994.84
2023-10-11T21:30:12.088Z,101000.13
2023-10-11T21:33:16.431Z,101018.75
2023-10-11T21:36:20.441Z,101020.91
2023-10-11T21:39:24.169Z,101016.28
2023-10-11T21:42:29.311Z,101023.59
2023-10-11T21:45:33.383Z,101013.44
2023-10-11T21:48:37.200Z,101005.88
2023-10-11T21:51:40.830Z,101003.44
2023-10-11T21:54:49.150Z,100993.72
2023-10-11T21:57:58.474Z,100983.38
2023-10-11T22:01:22.828Z,100986.91
2023-10-11T22:04:27.241Z,100996.38
2023-10-11T22:07:31.322Z,100987.41
2023-10-11T22:10:39.666Z,100984.16
2023-10-11T22:13:46.804Z,100990.03
2023-10-11T22:16:50.489Z,100998.25
2023-10-11T22:19:55.122Z,100998.16
2023-10-11T22:22:59.438Z,100989.28
2023-10-11T22:26:03.187Z,100984.94
2023-10-11T22:29:08.364Z,100986.56
2023-10-11T22:32:13.178Z,100995.59
2023-10-11T22:35:18.118Z,100990.22
2023-10-11T22:38:22.042Z,101004.41
2023-10-11T22:41:26.040Z,101020.28
2023-10-11T22:44:31.430Z,101026.38
2023-10-11T22:47:35.180Z,101028.97
2023-10-11T22:50:39.036Z,101029.84
2023-10-11T22:53:57.686Z,101032.13
2023-10-11T22:57:04.583Z,101027.53
2023-10-11T23:00:18.966Z,101035.63
2023-10-11T23:03:23.554Z,101048.06
2023-10-11T23:06:28.488Z,101041.38
2023-10-11T23:09:34.435Z,101051.03
2023-10-11T23:12:47.470Z,101056.06
2023-10-11T23:15:54.516Z,101068.50
2023-10-11T23:19:20.358Z,101055.69
2023-10-11T23:22:25.052Z,101050.53
2023-10-11T23:25:28.696Z,101052.28
2023-10-11T23:28:36.420Z,101057.41
2023-10-11T23:31:41.714Z,101057.41
2023-10-11T23:34:45.830Z,101048.66
2023-10-11T23:37:50.503Z,101041.13
2023-10-11T23:41:15.988Z,101056.50
2023-10-11T23:44:22.218Z,101051.28
2023-10-11T23:47:35.208Z,101069.78
2023-10-11T23:50:39.139Z,101072.41
2023-10-11T23:53:45.236Z,101076.91
2023-10-11T23:56:48.968Z,101071.13
2023-10-11T23:59:53.854Z,101070.59
